createdAt,value
2022-08-19T00:01:05.827Z,94992.59
2022-08-19T00:03:04.470Z,94995.75
2022-08-19T00:05:03.047Z,94998.22
2022-08-19T00:07:02.071Z,94981.97
2022-08-19T00:09:01.768Z,94989.38
2022-08-19T00:11:00.143Z,94990.44
2022-08-19T00:12:59.786Z,95003.00
2022-08-19T00:14:58.028Z,95000.94
2022-08-19T00:16:56.758Z,94995.38
2022-08-19T00:18:56.385Z,95000.31
2022-08-19T00:20:55.471Z,95010.41
2022-08-19T00:22:53.976Z,95005.25
2022-08-19T00:24:52.430Z,95005.47
2022-08-19T00:26:51.379Z,95008.31
2022-08-19T00:28:51.152Z,95009.19
2022-08-19T00:30:49.638Z,95013.28
2022-08-19T00:32:47.992Z,95009.19
2022-08-19T00:34:46.343Z,95000.31
2022-08-19T00:36:45.724Z,94997.84
2022-08-19T00:38:44.334Z,94992.88
2022-08-19T00:40:44.700Z,94998.06
2022-08-19T00:42:43.216Z,94993.09
2022-08-19T00:44:42.828Z,94988.78
2022-08-19T00:46:43.353Z,94997.22
2022-08-19T00:48:41.823Z,94990.44
2022-08-19T00:50:52.269Z,94997.63
2022-08-19T00:52:53.423Z,94999.06
2022-08-19T00:54:53.699Z,94984.88
2022-08-19T00:56:52.534Z,94992.50
2022-08-19T00:58:53.643Z,94991.66
2022-08-19T01:00:53.363Z,94986.72
2022-08-19T01:02:52.130Z,94986.94
2022-08-19T01:04:50.595Z,94991.03
2022-08-19T01:06:48.860Z,94996.19
2022-08-19T01:08:50.073Z,94992.28
2022-08-19T01:10:52.578Z,94994.53
2022-08-19T01:12:52.415Z,94992.06
2022-08-19T01:14:52.259Z,95000.09
2022-08-19T01:16:55.582Z,94994.34
2022-08-19T01:18:53.771Z,94997.63
2022-08-19T01:20:54.048Z,94997.03
2022-08-19T01:22:55.883Z,94996.78
2022-08-19T01:24:55.326Z,94990.63
2022-08-19T01:26:55.952Z,94990.84
2022-08-19T01:29:00.733Z,94992.06
2022-08-19T01:31:00.015Z,94989.38
2022-08-19T01:32:59.540Z,94989.59
2022-08-19T01:34:57.677Z,94988.56
2022-08-19T01:36:56.004Z,94990.78
2022-08-19T01:38:56.818Z,94994.28
2022-08-19T01:40:55.161Z,94990.31
2022-08-19T01:42:53.863Z,94997.06
2022-08-19T01:44:52.225Z,94984.28
2022-08-19T01:46:51.109Z,94991.03
2022-08-19T01:48:49.442Z,94993.72
2022-08-19T01:50:48.678Z,94989.84
2022-08-19T01:52:49.639Z,94996.34
2022-08-19T01:55:02.508Z,94999.03
2022-08-19T01:57:05.683Z,94997.88
2022-08-19T01:59:07.109Z,95009.56
2022-08-19T02:01:07.633Z,94999.59
2022-08-19T02:03:05.887Z,95007.63
2022-08-19T02:05:04.032Z,95000.88
2022-08-19T02:07:02.691Z,95008.47
2022-08-19T02:09:01.218Z,95007.84
2022-08-19T02:11:00.967Z,95007.56
2022-08-19T02:12:59.238Z,95000.97
2022-08-19T02:14:58.604Z,95005.94
2022-08-19T02:16:57.109Z,95005.38
2022-08-19T02:18:54.317Z,94990.19
2022-08-19T02:20:52.655Z,94992.72
2022-08-19T02:22:50.881Z,94996.19
2022-08-19T02:24:50.123Z,94994.31
2022-08-19T02:26:49.809Z,94997.78
2022-08-19T02:28:49.603Z,95004.59
2022-08-19T02:30:49.281Z,95001.13
2022-08-19T02:32:47.570Z,94999.28
2022-08-19T02:34:45.827Z,94999.28
2022-08-19T02:36:43.961Z,95005.03
2022-08-19T02:38:54.703Z,94996.97
2022-08-19T02:40:55.743Z,95010.00
2022-08-19T02:42:55.461Z,95000.78
2022-08-19T02:44:53.992Z,95009.72
2022-08-19T02:46:53.211Z,95008.25
2022-08-19T02:48:52.145Z,95010.84
2022-08-19T02:50:55.791Z,95010.97
2022-08-19T02:52:54.191Z,95002.41
2022-08-19T02:54:52.555Z,95011.84
2022-08-19T02:56:50.768Z,95011.06
2022-08-19T02:58:50.845Z,95019.03
2022-08-19T03:00:54.032Z,95010.69
2022-08-19T03:02:52.570Z,95011.72
2022-08-19T03:04:51.825Z,95012.72
2022-08-19T03:06:50.339Z,95012.28
2022-08-19T03:08:50.387Z,95008.34
2022-08-19T03:10:50.036Z,95012.00
2022-08-19T03:12:48.415Z,95010.38
2022-08-19T03:14:48.638Z,95006.00
2022-08-19T03:16:49.521Z,95008.69
2022-08-19T03:18:48.416Z,95011.09
2022-08-19T03:20:48.201Z,95002.69
2022-08-19T03:22:46.350Z,95003.47
2022-08-19T03:24:45.071Z,95012.88
2022-08-19T03:26:44.700Z,95012.13
2022-08-19T03:28:43.220Z,95012.28
2022-08-19T03:31:44.794Z,95007.47
2022-08-19T03:33:29.875Z,95008.91
2022-08-19T03:35:28.959Z,95009.53
2022-08-19T03:37:27.536Z,95015.75
2022-08-19T03:39:27.154Z,95011.19
2022-08-19T03:41:34.201Z,95016.19
2022-08-19T03:43:45.351Z,95021.31
2022-08-19T03:45:43.715Z,95023.81
2022-08-19T03:47:43.433Z,95024.97
2022-08-19T03:49:41.662Z,95031.16
2022-08-19T03:51:40.922Z,95034.91
2022-08-19T03:53:39.105Z,95031.81
2022-08-19T03:55:42.271Z,95040.44
2022-08-19T03:57:40.607Z,95030.09
2022-08-19T03:59:40.021Z,95041.59
2022-08-19T04:01:38.389Z,95037.16
2022-08-19T04:03:38.245Z,95042.03
2022-08-19T04:05:36.688Z,95040.13
2022-08-19T04:07:35.791Z,95045.16
2022-08-19T04:09:37.207Z,95044.22
2022-08-19T04:11:42.679Z,95041.03
2022-08-19T04:13:43.248Z,95044.53
2022-08-19T04:15:42.852Z,95043.75
2022-08-19T04:17:41.733Z,95041.72
2022-08-19T04:19:41.408Z,95041.13
2022-08-19T04:21:39.618Z,95049.53
2022-08-19T04:23:38.166Z,95051.63
2022-08-19T04:25:45.854Z,95055.88
2022-08-19T04:27:47.574Z,95060.19
2022-08-19T04:29:45.916Z,95051.72
2022-08-19T04:31:46.196Z,95055.41
2022-08-19T04:33:44.547Z,95054.59
2022-08-19T04:35:47.848Z,95054.31
2022-08-19T04:37:46.126Z,95053.78
2022-08-19T04:40:02.492Z,95043.78
2022-08-19T04:42:18.599Z,95041.72
2022-08-19T04:44:19.209Z,95048.06
2022-08-19T04:46:39.233Z,95048.94
2022-08-19T04:48:36.922Z,95044.50
2022-08-19T04:50:49.327Z,95046.28
2022-08-19T04:52:48.108Z,95050.66
2022-08-19T04:54:46.462Z,95056.84
2022-08-19T04:56:45.877Z,95053.00
2022-08-19T04:58:46.547Z,95049.13
2022-08-19T05:00:44.918Z,95058.38
2022-08-19T05:02:43.253Z,95052.81
2022-08-19T05:04:41.624Z,95052.16
2022-08-19T05:06:42.168Z,95062.47
2022-08-19T05:08:44.152Z,95060.59
2022-08-19T05:10:42.702Z,95055.31
2022-08-19T05:12:41.028Z,95056.25
2022-08-19T05:14:39.875Z,95063.78
2022-08-19T05:16:38.328Z,95060.50
2022-08-19T05:18:54.043Z,95059.53
2022-08-19T05:21:09.842Z,95067.94
2022-08-19T05:23:13.422Z,95065.38
2022-08-19T05:29:53.462Z,95070.47
2022-08-19T05:31:52.681Z,95065.44
2022-08-19T05:33:51.410Z,95065.38
2022-08-19T05:35:50.541Z,95063.44
2022-08-19T05:37:49.049Z,95057.59
2022-08-19T05:39:55.791Z,95061.31
2022-08-19T05:41:58.164Z,95059.38
2022-08-19T05:43:57.042Z,95062.81
2022-08-19T05:45:55.268Z,95069.69
2022-08-19T05:47:53.691Z,95060.38
2022-08-19T05:49:52.119Z,95054.75
2022-08-19T05:51:51.184Z,95063.81
2022-08-19T05:53:49.612Z,95061.16
2022-08-19T05:55:49.346Z,95050.84
2022-08-19T05:57:47.592Z,95057.41
2022-08-19T05:59:46.842Z,95056.03
2022-08-19T06:01:48.046Z,95065.50
2022-08-19T06:03:48.640Z,95057.34
2022-08-19T06:05:51.579Z,95066.75
2022-08-19T06:07:50.512Z,95066.66
2022-08-19T06:10:00.192Z,95069.47
2022-08-19T06:12:03.704Z,95067.84
2022-08-19T06:14:05.472Z,95066.91
2022-08-19T06:16:03.934Z,95060.22
2022-08-19T06:18:02.326Z,95065.94
2022-08-19T06:20:00.750Z,95064.56
2022-08-19T06:22:02.174Z,95066.19
2022-08-19T06:24:01.729Z,95070.00
2022-08-19T06:26:00.096Z,95066.66
2022-08-19T06:28:14.739Z,95068.19
2022-08-19T06:30:14.646Z,95061.97
2022-08-19T06:32:13.072Z,95063.28
2022-08-19T06:34:12.357Z,95063.34
2022-08-19T06:36:18.976Z,95064.69
2022-08-19T06:38:24.548Z,95068.91
2022-08-19T06:40:23.290Z,95063.28
2022-08-19T06:42:21.698Z,95076.09
2022-08-19T06:44:26.534Z,95066.72
2022-08-19T06:46:24.977Z,95071.88
2022-08-19T06:48:23.320Z,95067.47
2022-08-19T06:50:25.233Z,95061.41
2022-08-19T06:52:24.822Z,95061.63
2022-08-19T06:54:24.166Z,95065.22
2022-08-19T06:56:34.811Z,95063.88
2022-08-19T06:58:34.007Z,95056.28
2022-08-19T07:00:33.974Z,95062.91
2022-08-19T07:02:32.609Z,95068.38
2022-08-19T07:04:33.760Z,95061.94
2022-08-19T07:06:44.129Z,95071.22
2022-08-19T07:08:43.903Z,95063.00
2022-08-19T07:10:46.096Z,95072.47
2022-08-19T07:12:45.316Z,95059.09
2022-08-19T07:14:44.026Z,95064.44
2022-08-19T07:16:43.851Z,95068.19
2022-08-19T07:18:45.302Z,95065.41
2022-08-19T07:20:45.538Z,95071.69
2022-08-19T07:22:43.874Z,95066.78
2022-08-19T07:24:42.975Z,95064.97
2022-08-19T07:26:51.588Z,95070.91
2022-08-19T07:28:52.830Z,95068.38
2022-08-19T07:30:52.067Z,95073.91
2022-08-19T07:32:53.216Z,95080.25
2022-08-19T07:34:51.683Z,95067.16
2022-08-19T07:36:50.264Z,95058.69
2022-08-19T07:38:50.885Z,95062.88
2022-08-19T07:40:49.248Z,95057.44
2022-08-19T07:42:47.740Z,95055.63
2022-08-19T07:44:50.723Z,95055.25
2022-08-19T07:46:53.473Z,95057.75
2022-08-19T07:48:53.780Z,95060.38
2022-08-19T07:50:52.026Z,95065.22
2022-08-19T07:52:51.672Z,95056.78
2022-08-19T07:54:50.801Z,95056.22
2022-08-19T07:56:51.131Z,95062.22
2022-08-19T07:58:53.270Z,95058.69
2022-08-19T08:00:52.982Z,95060.16
2022-08-19T08:02:51.364Z,95055.69
2022-08-19T08:05:08.268Z,95054.53
2022-08-19T08:07:25.804Z,95059.06
2022-08-19T08:09:32.681Z,95058.69
2022-08-19T08:11:41.175Z,95058.75
2022-08-19T08:13:42.209Z,95063.16
2022-08-19T08:15:43.260Z,95051.28
2022-08-19T08:17:49.690Z,95056.25
2022-08-19T08:19:51.974Z,95043.44
2022-08-19T08:21:51.303Z,95035.53
2022-08-19T08:23:48.819Z,95033.69
2022-08-19T08:25:47.394Z,95041.72
2022-08-19T08:27:48.684Z,95030.75
2022-08-19T08:29:52.182Z,95037.13
2022-08-19T08:31:58.413Z,95036.31
2022-08-19T08:33:58.168Z,95038.75
2022-08-19T08:35:57.986Z,95034.72
2022-08-19T08:37:57.771Z,95031.38
2022-08-19T08:39:56.702Z,95039.09
2022-08-19T08:42:00.813Z,95020.97
2022-08-19T08:44:08.790Z,95026.00
2022-08-19T08:46:31.464Z,95029.50
2022-08-19T08:48:40.294Z,95028.47
2022-08-19T08:50:45.267Z,95027.19
2022-08-19T08:52:48.604Z,95021.47
2022-08-19T08:54:55.222Z,95020.13
2022-08-19T08:56:56.088Z,95016.47
2022-08-19T08:59:00.803Z,95014.91
2022-08-19T09:00:59.477Z,95011.16
2022-08-19T09:02:59.653Z,95010.22
2022-08-19T09:04:59.475Z,95000.66
2022-08-19T09:07:18.648Z,95003.34
2022-08-19T09:09:40.402Z,94997.94
2022-08-19T09:11:52.904Z,94999.53
2022-08-19T09:14:01.506Z,94999.56
2022-08-19T09:16:05.890Z,95002.41
2022-08-19T09:18:07.236Z,95000.34
2022-08-19T09:20:16.231Z,94990.56
2022-08-19T09:22:14.902Z,94997.63
2022-08-19T09:24:23.893Z,94986.44
2022-08-19T09:26:48.357Z,94990.63
2022-08-19T09:28:51.649Z,94988.38
2022-08-19T09:30:49.925Z,94978.28
2022-08-19T09:32:53.609Z,94980.13
2022-08-19T09:34:55.765Z,94978.19
2022-08-19T09:36:55.855Z,94979.88
2022-08-19T09:38:54.448Z,94973.97
2022-08-19T09:40:53.838Z,94975.41
2022-08-19T09:42:54.190Z,94975.03
2022-08-19T09:44:52.499Z,94968.81
2022-08-19T09:46:52.036Z,94977.59
2022-08-19T09:48:52.394Z,94979.66
2022-08-19T09:50:52.395Z,94981.44
2022-08-19T09:52:55.549Z,94973.28
2022-08-19T09:54:55.851Z,94971.88
2022-08-19T09:56:54.350Z,94968.59
2022-08-19T09:58:54.229Z,94960.09
2022-08-19T10:00:52.927Z,94961.44
2022-08-19T10:02:51.491Z,94958.94
2022-08-19T10:05:08.978Z,94951.97
2022-08-19T10:07:07.212Z,94953.22
2022-08-19T10:09:09.008Z,94957.25
2022-08-19T10:11:28.005Z,94949.78
2022-08-19T10:13:30.181Z,94947.81
2022-08-19T10:15:30.242Z,94943.50
2022-08-19T10:17:47.605Z,94943.31
2022-08-19T10:19:55.863Z,94946.84
2022-08-19T10:22:00.364Z,94943.88
2022-08-19T10:24:06.926Z,94941.13
2022-08-19T10:26:09.029Z,94939.38
2022-08-19T10:28:12.893Z,94932.75
2022-08-19T10:30:12.606Z,94930.81
2022-08-19T10:32:13.172Z,94928.38
2022-08-19T10:34:26.840Z,94929.88
2022-08-19T10:36:30.020Z,94921.31
2022-08-19T10:38:31.852Z,94930.94
2022-08-19T10:40:32.065Z,94928.59
2022-08-19T10:42:32.306Z,94920.47
2022-08-19T10:44:32.824Z,94914.22
2022-08-19T10:46:33.677Z,94923.38
2022-08-19T10:48:34.180Z,94917.38
2022-08-19T10:50:49.961Z,94919.50
2022-08-19T10:52:50.631Z,94914.09
2022-08-19T10:55:08.186Z,94911.41
2022-08-19T10:57:07.226Z,94920.66
2022-08-19T10:59:06.202Z,94915.84
2022-08-19T11:01:04.513Z,94911.75
2022-08-19T11:03:02.844Z,94910.84
2022-08-19T11:05:05.104Z,94923.44
2022-08-19T11:07:12.621Z,94915.81
2022-08-19T11:09:12.024Z,94913.38
2022-08-19T11:11:10.994Z,94910.19
2022-08-19T11:13:09.256Z,94916.69
2022-08-19T11:15:11.866Z,94899.91
2022-08-19T11:17:12.216Z,94908.13
2022-08-19T11:19:13.629Z,94904.25
2022-08-19T11:21:18.047Z,94900.75
2022-08-19T11:23:16.304Z,94906.81
2022-08-19T11:25:15.941Z,94902.66
2022-08-19T11:27:15.347Z,94900.13
2022-08-19T11:29:14.915Z,94901.22
2022-08-19T11:31:14.252Z,94896.22
2022-08-19T11:33:12.547Z,94889.84
2022-08-19T11:35:12.289Z,94896.34
2022-08-19T11:37:12.006Z,94889.47
2022-08-19T11:39:10.670Z,94884.53
2022-08-19T11:41:09.508Z,94882.00
2022-08-19T11:43:08.610Z,94873.63
2022-08-19T11:45:07.646Z,94874.66
2022-08-19T11:47:08.800Z,94871.53
2022-08-19T11:49:13.835Z,94877.97
2022-08-19T11:51:14.646Z,94860.72
2022-08-19T11:53:14.383Z,94878.13
2022-08-19T11:55:13.305Z,94870.94
2022-08-19T11:57:11.790Z,94874.25
2022-08-19T11:59:14.606Z,94874.44
2022-08-19T12:01:14.694Z,94859.75
2022-08-19T12:03:13.902Z,94857.44
2022-08-19T12:05:13.253Z,94861.59
2022-08-19T12:07:11.642Z,94850.31
2022-08-19T12:09:12.914Z,94849.75
2022-08-19T12:11:12.694Z,94852.22
2022-08-19T12:13:11.683Z,94851.88
2022-08-19T12:15:12.038Z,94845.88
2022-08-19T12:17:12.672Z,94841.41
2022-08-19T12:19:12.370Z,94836.13
2022-08-19T12:21:12.111Z,94836.53
2022-08-19T12:23:11.444Z,94833.41
2022-08-19T12:25:13.194Z,94829.22
2022-08-19T12:27:12.735Z,94829.97
2022-08-19T12:29:11.535Z,94822.47
2022-08-19T12:31:13.018Z,94831.22
2022-08-19T12:33:11.512Z,94832.03
2022-08-19T12:35:12.467Z,94817.84
2022-08-19T12:37:12.051Z,94816.41
2022-08-19T12:39:10.727Z,94817.88
2022-08-19T12:41:15.111Z,94817.09
2022-08-19T12:43:13.515Z,94810.25
2022-08-19T12:45:13.630Z,94811.75
2022-08-19T12:47:15.585Z,94811.25
2022-08-19T12:49:52.566Z,94805.81
2022-08-19T12:51:36.556Z,94811.13
2022-08-19T12:53:35.147Z,94808.03
2022-08-19T12:55:40.260Z,94808.84
2022-08-19T12:57:40.226Z,94809.50
2022-08-19T12:59:38.982Z,94797.72
2022-08-19T13:01:37.251Z,94797.38
2022-08-19T13:03:40.016Z,94802.50
2022-08-19T13:05:38.774Z,94797.25
2022-08-19T13:07:38.342Z,94799.34
2022-08-19T13:09:36.675Z,94789.66
2022-08-19T13:11:35.522Z,94790.84
2022-08-19T13:13:35.349Z,94791.97
2022-08-19T13:15:41.384Z,94783.19
2022-08-19T13:17:42.153Z,94780.94
2022-08-19T13:19:41.775Z,94790.88
2022-08-19T13:21:42.704Z,94782.81
2022-08-19T13:23:41.807Z,94784.81
2022-08-19T13:25:40.100Z,94781.03
2022-08-19T13:27:42.221Z,94788.44
2022-08-19T13:30:00.933Z,94774.47
2022-08-19T13:32:17.706Z,94772.25
2022-08-19T13:34:18.247Z,94770.69
2022-08-19T13:36:16.683Z,94768.44
2022-08-19T13:38:16.491Z,94763.00
2022-08-19T13:40:19.391Z,94775.03
2022-08-19T13:42:19.246Z,94772.00
2022-08-19T13:44:19.262Z,94767.16
2022-08-19T13:46:20.870Z,94764.13
2022-08-19T13:48:19.441Z,94757.63
2022-08-19T13:50:19.647Z,94758.91
2022-08-19T13:52:17.929Z,94757.97
2022-08-19T13:54:16.367Z,94751.69
2022-08-19T13:56:16.374Z,94751.88
2022-08-19T13:58:15.590Z,94758.50
2022-08-19T14:00:18.935Z,94751.16
2022-08-19T14:02:18.665Z,94752.44
2022-08-19T14:04:16.883Z,94749.47
2022-08-19T14:06:15.224Z,94758.91
2022-08-19T14:08:15.119Z,94746.47
2022-08-19T14:10:15.042Z,94749.72
2022-08-19T14:12:13.374Z,94759.81
2022-08-19T14:14:15.917Z,94752.75
2022-08-19T14:16:16.324Z,94752.41
2022-08-19T14:18:16.584Z,94756.16
2022-08-19T14:20:17.529Z,94751.03
2022-08-19T14:22:15.966Z,94751.84
2022-08-19T14:24:20.579Z,94744.78
2022-08-19T14:26:20.382Z,94740.16
2022-08-19T14:28:18.830Z,94746.16
2022-08-19T14:30:21.811Z,94736.78
2022-08-19T14:32:20.793Z,94745.84
2022-08-19T14:34:20.511Z,94740.56
2022-08-19T14:36:19.108Z,94730.66
2022-08-19T14:38:22.020Z,94740.97
2022-08-19T14:40:31.641Z,94732.25
2022-08-19T14:42:32.963Z,94739.06
2022-08-19T14:44:34.899Z,94736.94
2022-08-19T14:46:33.387Z,94732.78
2022-08-19T14:48:31.637Z,94728.44
2022-08-19T14:50:31.631Z,94729.53
2022-08-19T14:52:30.023Z,94724.69
2022-08-19T14:54:28.417Z,94716.53
2022-08-19T14:56:31.383Z,94721.28
2022-08-19T14:58:30.493Z,94724.56
2022-08-19T15:00:29.280Z,94719.88
2022-08-19T15:02:34.605Z,94722.97
2022-08-19T15:04:36.461Z,94721.59
2022-08-19T15:06:36.211Z,94720.25
2022-08-19T15:08:36.157Z,94722.09
2022-08-19T15:10:34.410Z,94734.06
2022-08-19T15:12:33.309Z,94730.81
2022-08-19T15:14:35.880Z,94723.91
2022-08-19T15:16:34.595Z,94722.59
2022-08-19T15:18:33.886Z,94724.19
2022-08-19T15:20:32.786Z,94725.75
2022-08-19T15:22:32.953Z,94725.13
2022-08-19T15:24:31.358Z,94717.81
2022-08-19T15:26:33.097Z,94718.63
2022-08-19T15:28:32.317Z,94726.75
2022-08-19T15:30:31.332Z,94717.53
2022-08-19T15:32:29.978Z,94719.72
2022-08-19T15:34:28.383Z,94718.69
2022-08-19T15:36:27.145Z,94715.16
2022-08-19T15:38:27.311Z,94714.03
2022-08-19T15:40:27.691Z,94710.75
2022-08-19T15:42:29.636Z,94717.00
2022-08-19T15:44:28.620Z,94717.22
2022-08-19T15:46:31.519Z,94722.97
2022-08-19T15:48:29.679Z,94718.13
2022-08-19T15:50:28.355Z,94724.38
2022-08-19T15:52:27.422Z,94716.22
2022-08-19T15:54:27.257Z,94717.91
2022-08-19T15:56:27.388Z,94719.56
2022-08-19T15:58:43.570Z,94720.13
2022-08-19T16:00:59.477Z,94722.03
2022-08-19T16:03:17.461Z,94722.66
2022-08-19T16:05:39.206Z,94717.78
2022-08-19T16:07:37.497Z,94716.34
2022-08-19T16:09:46.024Z,94720.50
2022-08-19T16:11:46.494Z,94715.03
2022-08-19T16:13:44.887Z,94719.44
2022-08-19T16:15:43.166Z,94715.91
2022-08-19T16:17:41.864Z,94717.53
2022-08-19T16:19:40.564Z,94723.31
2022-08-19T16:21:40.435Z,94717.88
2022-08-19T16:23:40.449Z,94718.16
2022-08-19T16:25:40.253Z,94724.16
2022-08-19T16:27:38.617Z,94721.19
2022-08-19T16:29:39.310Z,94723.59
2022-08-19T16:31:38.922Z,94719.25
2022-08-19T16:33:37.281Z,94718.19
2022-08-19T16:35:35.617Z,94729.44
2022-08-19T16:37:33.921Z,94728.91
2022-08-19T16:39:32.624Z,94724.59
2022-08-19T16:41:32.472Z,94722.41
2022-08-19T16:43:32.124Z,94727.34
2022-08-19T16:45:30.760Z,94725.19
2022-08-19T16:47:28.988Z,94731.97
2022-08-19T16:49:54.290Z,94732.25
2022-08-19T16:51:47.020Z,94728.22
2022-08-19T16:53:45.788Z,94736.09
2022-08-19T16:55:45.248Z,94728.81
2022-08-19T16:57:45.078Z,94729.91
2022-08-19T16:59:49.194Z,94738.34
2022-08-19T17:01:47.833Z,94733.97
2022-08-19T17:03:49.968Z,94740.25
2022-08-19T17:05:50.608Z,94739.97
2022-08-19T17:07:48.799Z,94742.97
2022-08-19T17:09:47.281Z,94746.78
2022-08-19T17:11:49.841Z,94751.38
2022-08-19T17:13:50.955Z,94749.19
2022-08-19T17:15:49.484Z,94751.38
2022-08-19T17:17:47.974Z,94748.13
2022-08-19T17:19:47.763Z,94760.59
2022-08-19T17:21:46.090Z,94757.09
2022-08-19T17:23:44.412Z,94754.63
2022-08-19T17:25:43.280Z,94763.81
2022-08-19T17:27:41.551Z,94764.88
2022-08-19T17:29:45.095Z,94771.13
2022-08-19T17:31:45.237Z,94776.81
2022-08-19T17:33:48.250Z,94775.97
2022-08-19T17:35:48.231Z,94775.41
2022-08-19T17:37:46.704Z,94782.69
2022-08-19T17:39:45.168Z,94781.03
2022-08-19T17:41:44.522Z,94780.69
2022-08-19T17:43:44.094Z,94783.69
2022-08-19T17:45:45.576Z,94786.41
2022-08-19T17:47:44.185Z,94796.41
2022-08-19T17:49:42.600Z,94795.53
2022-08-19T17:51:45.178Z,94796.03
2022-08-19T17:53:43.876Z,94796.53
2022-08-19T17:55:42.248Z,94795.41
2022-08-19T17:57:46.937Z,94798.41
2022-08-19T17:59:45.672Z,94795.13
2022-08-19T18:01:53.973Z,94804.63
2022-08-19T18:03:52.850Z,94800.81
2022-08-19T18:05:51.426Z,94804.84
2022-08-19T18:07:52.205Z,94805.63
2022-08-19T18:09:54.838Z,94808.47
2022-08-19T18:11:56.968Z,94805.94
2022-08-19T18:13:55.550Z,94809.44
2022-08-19T18:15:54.770Z,94822.28
2022-08-19T18:17:55.520Z,94810.03
2022-08-19T18:19:53.997Z,94816.25
2022-08-19T18:21:52.478Z,94817.50
2022-08-19T18:23:50.774Z,94814.22
2022-08-19T18:25:53.739Z,94816.59
2022-08-19T18:27:52.637Z,94815.94
2022-08-19T18:29:51.255Z,94819.59
2022-08-19T18:31:49.730Z,94817.94
2022-08-19T18:33:52.646Z,94817.31
2022-08-19T18:35:52.166Z,94816.97
2022-08-19T18:37:50.651Z,94813.97
2022-08-19T18:40:07.117Z,94820.16
2022-08-19T18:42:23.431Z,94820.50
2022-08-19T18:44:39.283Z,94813.47
2022-08-19T18:46:56.225Z,94812.34
2022-08-19T18:49:07.062Z,94814.44
2022-08-19T18:51:06.318Z,94819.66
2022-08-19T18:53:06.299Z,94820.56
2022-08-19T18:55:07.578Z,94821.06
2022-08-19T18:57:06.262Z,94825.28
2022-08-19T18:59:05.022Z,94830.22
2022-08-19T19:01:11.462Z,94834.59
2022-08-19T19:03:10.868Z,94829.72
2022-08-19T19:05:13.512Z,94829.25
2022-08-19T19:07:11.980Z,94829.91
2022-08-19T19:09:12.176Z,94837.22
2022-08-19T19:11:10.891Z,94835.56
2022-08-19T19:13:09.234Z,94840.66
2022-08-19T19:15:09.230Z,94836.78
2022-08-19T19:17:12.899Z,94844.53
2022-08-19T19:19:14.365Z,94845.00
2022-08-19T19:21:19.478Z,94850.47
2022-08-19T19:23:17.752Z,94850.88
2022-08-19T19:25:25.774Z,94859.81
2022-08-19T19:27:43.056Z,94859.72
2022-08-19T19:29:42.544Z,94865.66
2022-08-19T19:31:41.151Z,94864.66
2022-08-19T19:33:39.740Z,94872.91
2022-08-19T19:35:38.706Z,94874.13
2022-08-19T19:37:45.355Z,94870.44
2022-08-19T19:39:46.308Z,94871.91
2022-08-19T19:41:45.888Z,94872.88
2022-08-19T19:43:44.364Z,94874.69
2022-08-19T19:45:42.565Z,94875.91
2022-08-19T19:47:42.803Z,94879.81
2022-08-19T19:49:57.981Z,94888.03
2022-08-19T19:51:59.344Z,94892.03
2022-08-19T19:53:59.201Z,94889.66
2022-08-19T19:55:59.009Z,94894.38
2022-08-19T19:57:57.809Z,94888.41
2022-08-19T19:59:56.237Z,94883.53
2022-08-19T20:01:55.395Z,94891.38
2022-08-19T20:04:01.387Z,94888.34
2022-08-19T20:06:00.353Z,94885.03
2022-08-19T20:08:16.139Z,94889.41
2022-08-19T20:10:18.444Z,94887.03
2022-08-19T20:12:16.648Z,94894.16
2022-08-19T20:14:17.573Z,94887.94
2022-08-19T20:16:16.444Z,94893.81
2022-08-19T20:18:15.520Z,94892.50
2022-08-19T20:20:15.780Z,94891.38
2022-08-19T20:22:14.058Z,94881.38
2022-08-19T20:24:15.213Z,94889.41
2022-08-19T20:26:22.618Z,94887.59
2022-08-19T20:28:31.923Z,94885.09
2022-08-19T20:30:33.097Z,94895.88
2022-08-19T20:32:31.616Z,94897.19
2022-08-19T20:34:30.133Z,94899.44
2022-08-19T20:36:28.421Z,94905.19
2022-08-19T20:38:26.794Z,94909.84
2022-08-19T20:40:25.387Z,94912.88
2022-08-19T20:42:25.372Z,94917.78
2022-08-19T20:44:24.998Z,94914.19
2022-08-19T20:46:23.180Z,94911.09
2022-08-19T20:48:21.529Z,94915.47
2022-08-19T20:50:19.969Z,94914.78
2022-08-19T20:52:18.498Z,94923.22
2022-08-19T20:54:16.949Z,94923.81
2022-08-19T20:56:15.551Z,94927.31
2022-08-19T20:58:15.511Z,94926.38
2022-08-19T21:00:15.131Z,94919.13
2022-08-19T21:02:13.588Z,94929.53
2022-08-19T21:04:11.836Z,94923.09
2022-08-19T21:06:11.122Z,94922.88
2022-08-19T21:08:12.007Z,94932.94
2022-08-19T21:10:10.778Z,94932.41
2022-08-19T21:12:10.116Z,94932.78
2022-08-19T21:14:09.922Z,94928.91
2022-08-19T21:16:09.191Z,94919.75
2022-08-19T21:18:08.461Z,94923.31
2022-08-19T21:20:09.424Z,94923.41
2022-08-19T21:22:07.731Z,94917.41
2022-08-19T21:24:06.373Z,94914.50
2022-08-19T21:26:04.731Z,94919.75
2022-08-19T21:28:03.552Z,94921.88
2022-08-19T21:30:03.444Z,94925.75
2022-08-19T21:32:02.024Z,94927.38
2022-08-19T21:34:00.984Z,94924.34
2022-08-19T21:36:00.251Z,94925.84
2022-08-19T21:37:59.177Z,94926.34
2022-08-19T21:39:57.851Z,94924.22
2022-08-19T21:41:56.293Z,94926.34
2022-08-19T21:43:54.528Z,94929.19
2022-08-19T21:45:54.362Z,94930.81
2022-08-19T21:47:52.648Z,94919.66
2022-08-19T21:49:51.040Z,94925.28
2022-08-19T21:51:49.355Z,94922.44
2022-08-19T21:53:47.566Z,94916.72
2022-08-19T21:55:52.782Z,94915.78
2022-08-19T21:57:51.887Z,94923.75
2022-08-19T21:59:50.207Z,94915.88
2022-08-19T22:01:58.809Z,94915.88
2022-08-19T22:04:04.238Z,94927.03
2022-08-19T22:06:02.936Z,94911.31
2022-08-19T22:08:03.423Z,94922.44
2022-08-19T22:10:01.926Z,94912.75
2022-08-19T22:12:00.155Z,94915.44
2022-08-19T22:13:58.363Z,94918.94
2022-08-19T22:15:56.653Z,94914.38
2022-08-19T22:17:57.350Z,94910.75
2022-08-19T22:19:57.579Z,94906.63
2022-08-19T22:21:55.863Z,94910.97
2022-08-19T22:23:54.366Z,94899.97
2022-08-19T22:25:52.610Z,94900.56
2022-08-19T22:27:51.637Z,94904.66
2022-08-19T22:29:55.573Z,94895.97
2022-08-19T22:31:54.652Z,94901.63
2022-08-19T22:33:58.034Z,94900.56
2022-08-19T22:35:56.530Z,94895.63
2022-08-19T22:37:54.911Z,94892.81
2022-08-19T22:39:53.417Z,94888.03
2022-08-19T22:41:51.747Z,94886.72
2022-08-19T22:43:50.169Z,94885.81
2022-08-19T22:45:49.239Z,94882.97
2022-08-19T22:47:48.989Z,94881.34
2022-08-19T22:49:48.617Z,94886.00
2022-08-19T22:52:03.993Z,94883.06
2022-08-19T22:54:03.112Z,94888.34
2022-08-19T22:56:01.962Z,94888.59
2022-08-19T22:58:00.554Z,94889.41
2022-08-19T22:59:58.893Z,94887.97
2022-08-19T23:01:59.574Z,94877.91
2022-08-19T23:03:58.625Z,94886.19
2022-08-19T23:05:58.703Z,94891.72
2022-08-19T23:07:58.222Z,94888.31
2022-08-19T23:09:57.351Z,94879.28
2022-08-19T23:11:55.695Z,94885.84
2022-08-19T23:13:53.891Z,94879.63
2022-08-19T23:15:52.305Z,94879.63
2022-08-19T23:17:52.132Z,94875.63
2022-08-19T23:19:50.770Z,94876.06
2022-08-19T23:21:52.709Z,94870.03
2022-08-19T23:23:51.171Z,94872.38
2022-08-19T23:25:50.239Z,94873.09
2022-08-19T23:28:07.228Z,94873.91
2022-08-19T23:30:23.416Z,94868.97
2022-08-19T23:32:22.638Z,94858.13
2022-08-19T23:34:21.161Z,94861.03
2022-08-19T23:36:20.550Z,94854.97
2022-08-19T23:38:23.285Z,94857.06
2022-08-19T23:40:22.533Z,94854.16
2022-08-19T23:42:21.494Z,94856.84
2022-08-19T23:44:19.814Z,94857.28
2022-08-19T23:46:27.332Z,94847.72
2022-08-19T23:48:28.365Z,94851.81